createdAt,value
2023-03-02T00:01:48.014Z,102792.06
2023-03-02T00:04:20.983Z,102796.34
2023-03-02T00:06:49.084Z,102794.66
2023-03-02T00:09:16.015Z,102801.72
2023-03-02T00:11:43.321Z,102796.63
2023-03-02T00:14:09.869Z,102796.63
2023-03-02T00:16:36.517Z,102782.91
2023-03-02T00:19:03.302Z,102789.81
2023-03-02T00:21:29.873Z,102788.16
2023-03-02T00:23:56.402Z,102785.56
2023-03-02T00:26:22.974Z,102770.03
2023-03-02T00:28:50.065Z,102775.97
2023-03-02T00:31:16.902Z,102775.13
2023-03-02T00:33:43.783Z,102781.16
2023-03-02T00:36:17.970Z,102781.09
2023-03-02T00:38:44.794Z,102781.94
2023-03-02T00:41:12.732Z,102787.84
2023-03-02T00:43:39.608Z,102782.56
2023-03-02T00:46:15.129Z,102780.66
2023-03-02T00:48:41.806Z,102768.56
2023-03-02T00:51:09.496Z,102774.41
2023-03-02T00:53:36.872Z,102771.94
2023-03-02T00:56:04.931Z,102775.44
2023-03-02T00:58:31.827Z,102776.34
2023-03-02T01:00:58.909Z,102782.38
2023-03-02T01:03:25.799Z,102776.41
2023-03-02T01:05:55.435Z,102785.09
2023-03-02T01:08:25.215Z,102793.81
2023-03-02T01:10:54.318Z,102785.34
2023-03-02T01:13:21.232Z,102781.84
2023-03-02T01:15:47.880Z,102780.19
2023-03-02T01:18:14.849Z,102775.09
2023-03-02T01:20:41.424Z,102769.94
2023-03-02T01:23:08.160Z,102764.78
2023-03-02T01:25:34.707Z,102770.88
2023-03-02T01:28:01.125Z,102766.47
2023-03-02T01:30:27.614Z,102765.47
2023-03-02T01:32:54.290Z,102763.72
2023-03-02T01:35:20.838Z,102764.66
2023-03-02T01:37:47.437Z,102760.44
2023-03-02T01:40:14.496Z,102762.19
2023-03-02T01:42:47.662Z,102751.00
2023-03-02T01:45:44.848Z,102752.75
2023-03-02T01:48:13.829Z,102751.78
2023-03-02T01:50:40.550Z,102754.38
2023-03-02T01:53:07.861Z,102744.91
2023-03-02T01:55:38.947Z,102748.41
2023-03-02T01:58:06.654Z,102751.00
2023-03-02T02:00:37.395Z,102758.72
2023-03-02T02:03:09.138Z,102752.63
2023-03-02T02:05:43.854Z,102756.81
2023-03-02T02:08:10.631Z,102752.50
2023-03-02T02:10:38.415Z,102756.75
2023-03-02T02:13:08.964Z,102749.81
2023-03-02T02:15:35.546Z,102742.75
2023-03-02T02:18:02.113Z,102745.25
2023-03-02T02:20:39.697Z,102741.09
2023-03-02T02:23:26.449Z,102734.22
2023-03-02T02:25:55.951Z,102733.25
2023-03-02T02:28:30.249Z,102739.25
2023-03-02T02:31:41.539Z,102736.66
2023-03-02T02:34:22.567Z,102728.16
2023-03-02T02:36:51.780Z,102732.63
2023-03-02T02:39:25.624Z,102732.63
2023-03-02T02:41:56.626Z,102733.47
2023-03-02T02:44:23.150Z,102734.38
2023-03-02T02:46:49.637Z,102738.84
2023-03-02T02:49:35.259Z,102731.25
2023-03-02T02:52:03.933Z,102726.38
2023-03-02T02:54:31.942Z,102729.09
2023-03-02T02:57:01.536Z,102727.69
2023-03-02T02:59:39.892Z,102720.13
2023-03-02T03:02:06.963Z,102714.25
2023-03-02T03:04:33.555Z,102716.13
2023-03-02T03:07:02.479Z,102715.47
2023-03-02T03:09:29.419Z,102714.66
2023-03-02T03:12:01.701Z,102713.06
2023-03-02T03:14:36.595Z,102710.50
2023-03-02T03:17:03.214Z,102712.25
2023-03-02T03:19:32.770Z,102718.41
2023-03-02T03:22:01.378Z,102710.59
2023-03-02T03:24:30.382Z,102715.06
2023-03-02T03:26:57.491Z,102713.34
2023-03-02T03:29:26.556Z,102708.13
2023-03-02T03:31:55.449Z,102716.16
2023-03-02T03:34:22.562Z,102716.97
2023-03-02T03:36:49.061Z,102710.13
2023-03-02T03:39:16.844Z,102710.22
2023-03-02T03:41:44.412Z,102711.25
2023-03-02T03:44:11.925Z,102706.22
2023-03-02T03:46:38.985Z,102715.78
2023-03-02T03:49:05.965Z,102714.94
2023-03-02T03:51:35.521Z,102716.69
2023-03-02T03:54:08.124Z,102713.19
2023-03-02T03:56:41.398Z,102717.59
2023-03-02T03:59:10.229Z,102719.38
2023-03-02T04:01:45.615Z,102721.13
2023-03-02T04:04:22.412Z,102712.47
2023-03-02T04:06:49.438Z,102721.22
2023-03-02T04:09:18.108Z,102729.53
2023-03-02T04:11:46.942Z,102731.78
2023-03-02T04:14:14.081Z,102724.69
2023-03-02T04:16:41.147Z,102722.81
2023-03-02T04:19:11.063Z,102712.25
2023-03-02T04:21:45.150Z,102714.00
2023-03-02T04:24:12.668Z,102711.31
2023-03-02T04:26:40.832Z,102718.34
2023-03-02T04:29:07.739Z,102714.22
2023-03-02T04:31:34.411Z,102702.13
2023-03-02T04:34:04.193Z,102714.41
2023-03-02T04:36:33.180Z,102719.44
2023-03-02T04:38:59.763Z,102714.94
2023-03-02T04:41:26.370Z,102707.94
2023-03-02T04:43:52.867Z,102710.63
2023-03-02T04:46:22.925Z,102715.09
2023-03-02T04:48:49.633Z,102711.06
2023-03-02T04:51:31.014Z,102710.34
2023-03-02T04:54:01.646Z,102712.97
2023-03-02T04:56:29.852Z,102720.72
2023-03-02T04:58:56.628Z,102718.22
2023-03-02T05:01:24.697Z,102714.94
2023-03-02T05:03:51.629Z,102716.94
2023-03-02T05:06:18.384Z,102715.38
2023-03-02T05:08:45.461Z,102710.41
2023-03-02T05:11:22.375Z,102709.50
2023-03-02T05:13:50.964Z,102714.75
2023-03-02T05:16:18.050Z,102710.47
2023-03-02T05:18:44.665Z,102708.88
2023-03-02T05:21:11.803Z,102712.41
2023-03-02T05:23:38.403Z,102712.59
2023-03-02T05:26:05.086Z,102710.06
2023-03-02T05:28:31.735Z,102712.66
2023-03-02T05:30:58.275Z,102710.22
2023-03-02T05:33:24.910Z,102709.22
2023-03-02T05:35:51.502Z,102714.53
2023-03-02T05:38:18.202Z,102716.38
2023-03-02T05:40:45.348Z,102708.84
2023-03-02T05:43:16.540Z,102713.13
2023-03-02T05:45:43.175Z,102708.78
2023-03-02T05:48:12.177Z,102702.81
2023-03-02T05:50:38.850Z,102708.22
2023-03-02T05:53:05.473Z,102710.09
2023-03-02T05:55:37.228Z,102708.50
2023-03-02T05:58:09.211Z,102703.16
2023-03-02T06:00:36.109Z,102706.53
2023-03-02T06:03:02.810Z,102710.78
2023-03-02T06:05:29.390Z,102713.47
2023-03-02T06:07:56.204Z,102718.44
2023-03-02T06:10:22.951Z,102718.53
2023-03-02T06:12:49.429Z,102711.63
2023-03-02T06:15:15.964Z,102719.13
2023-03-02T06:17:42.800Z,102725.06
2023-03-02T06:20:11.258Z,102720.69
2023-03-02T06:22:45.156Z,102724.13
2023-03-02T06:25:18.013Z,102727.75
2023-03-02T06:27:45.345Z,102723.72
2023-03-02T06:30:15.081Z,102734.03
2023-03-02T06:32:42.474Z,102732.41
2023-03-02T06:35:10.708Z,102728.97
2023-03-02T06:37:37.720Z,102728.13
2023-03-02T06:40:10.272Z,102738.59
2023-03-02T06:42:38.800Z,102732.41
2023-03-02T06:45:06.423Z,102739.38
2023-03-02T06:47:33.480Z,102741.00
2023-03-02T06:50:00.514Z,102748.72
2023-03-02T06:52:29.790Z,102744.47
2023-03-02T06:54:56.673Z,102747.13
2023-03-02T06:57:23.494Z,102745.31
2023-03-02T06:59:50.004Z,102747.00
2023-03-02T07:02:16.554Z,102748.56
2023-03-02T07:04:43.192Z,102751.16
2023-03-02T07:07:09.789Z,102753.75
2023-03-02T07:09:36.356Z,102760.59
2023-03-02T07:12:02.851Z,102750.97
2023-03-02T07:14:29.359Z,102757.69
2023-03-02T07:16:57.484Z,102761.03
2023-03-02T07:19:24.147Z,102750.53
2023-03-02T07:21:50.745Z,102752.13
2023-03-02T07:24:17.438Z,102752.72
2023-03-02T07:26:43.972Z,102748.22
2023-03-02T07:29:10.476Z,102758.41
2023-03-02T07:31:37.014Z,102751.38
2023-03-02T07:34:03.576Z,102755.50
2023-03-02T07:36:30.237Z,102756.22
2023-03-02T07:38:57.616Z,102750.81
2023-03-02T07:41:24.211Z,102744.59
2023-03-02T07:43:50.737Z,102745.25
2023-03-02T07:46:17.316Z,102745.88
2023-03-02T07:48:44.189Z,102741.34
2023-03-02T07:51:10.824Z,102739.47
2023-03-02T07:53:37.715Z,102739.34
2023-03-02T07:56:09.561Z,102743.34
2023-03-02T07:58:36.849Z,102741.34
2023-03-02T08:01:04.418Z,102740.16
2023-03-02T08:03:30.969Z,102744.28
2023-03-02T08:05:57.445Z,102741.44
2023-03-02T08:08:24.305Z,102740.31
2023-03-02T08:10:50.883Z,102742.53
2023-03-02T08:13:17.377Z,102735.44
2023-03-02T08:15:44.003Z,102742.00
2023-03-02T08:18:10.523Z,102738.28
2023-03-02T08:20:37.534Z,102732.00
2023-03-02T08:23:04.049Z,102731.63
2023-03-02T08:25:30.597Z,102730.50
2023-03-02T08:27:57.175Z,102730.13
2023-03-02T08:30:23.735Z,102736.84
2023-03-02T08:32:50.293Z,102735.72
2023-03-02T08:35:17.467Z,102733.69
2023-03-02T08:37:44.011Z,102731.66
2023-03-02T08:40:11.166Z,102739.94
2023-03-02T08:42:37.673Z,102732.03
2023-03-02T08:45:04.605Z,102735.25
2023-03-02T08:47:32.504Z,102740.09
2023-03-02T08:49:59.034Z,102737.97
2023-03-02T08:52:25.701Z,102739.53
2023-03-02T08:54:52.327Z,102734.69
2023-03-02T08:57:20.398Z,102737.69
2023-03-02T08:59:47.890Z,102737.38
2023-03-02T09:02:14.394Z,102733.53
2023-03-02T09:04:41.260Z,102734.16
2023-03-02T09:07:07.846Z,102731.31
2023-03-02T09:09:34.413Z,102738.72
2023-03-02T09:12:00.955Z,102735.72
2023-03-02T09:14:27.973Z,102727.09
2023-03-02T09:16:54.745Z,102728.59
2023-03-02T09:19:21.432Z,102728.03
2023-03-02T09:21:48.127Z,102731.06
2023-03-02T09:24:14.674Z,102729.31
2023-03-02T09:26:41.302Z,102728.25
2023-03-02T09:29:07.917Z,102730.28
2023-03-02T09:31:35.730Z,102729.25
2023-03-02T09:34:02.596Z,102721.88
2023-03-02T09:36:31.218Z,102727.06
2023-03-02T09:38:57.752Z,102729.09
2023-03-02T09:41:47.987Z,102722.47
2023-03-02T09:44:37.403Z,102727.75
2023-03-02T09:47:09.864Z,102730.09
2023-03-02T09:49:57.972Z,102732.91
2023-03-02T09:52:38.414Z,102734.25
2023-03-02T09:55:22.343Z,102732.31
2023-03-02T09:57:49.299Z,102733.03
2023-03-02T10:00:28.997Z,102726.22
2023-03-02T10:03:11.432Z,102722.06
2023-03-02T10:05:44.197Z,102727.91
2023-03-02T10:08:24.620Z,102725.34
2023-03-02T10:11:18.768Z,102732.41
2023-03-02T10:13:56.502Z,102729.00
2023-03-02T10:16:38.715Z,102737.16
2023-03-02T10:19:26.718Z,102737.25
2023-03-02T10:22:13.188Z,102730.72
2023-03-02T10:25:16.674Z,102723.19
2023-03-02T10:27:50.394Z,102718.53
2023-03-02T10:30:25.551Z,102718.31
2023-03-02T10:32:52.938Z,102708.78
2023-03-02T10:35:28.166Z,102715.28
2023-03-02T10:38:10.408Z,102711.44
2023-03-02T10:40:48.466Z,102719.53
2023-03-02T10:43:27.596Z,102715.28
2023-03-02T10:46:00.433Z,102698.91
2023-03-02T10:48:27.435Z,102706.56
2023-03-02T10:50:56.442Z,102710.34
2023-03-02T10:53:22.943Z,102705.03
2023-03-02T10:55:52.393Z,102703.66
2023-03-02T10:58:26.150Z,102707.03
2023-03-02T11:01:01.070Z,102688.00
2023-03-02T11:03:29.053Z,102691.13
2023-03-02T11:05:56.725Z,102695.50
2023-03-02T11:08:26.856Z,102683.47
2023-03-02T11:10:53.843Z,102687.34
2023-03-02T11:13:35.065Z,102678.81
2023-03-02T11:16:05.183Z,102682.81
2023-03-02T11:18:39.730Z,102670.84
2023-03-02T11:21:22.367Z,102676.69
2023-03-02T11:24:02.224Z,102666.63
2023-03-02T11:26:34.086Z,102663.09
2023-03-02T11:29:25.603Z,102672.00
2023-03-02T11:32:01.737Z,102665.72
2023-03-02T11:34:42.746Z,102661.00
2023-03-02T11:37:24.459Z,102662.44
2023-03-02T11:39:59.604Z,102649.34
2023-03-02T11:42:26.117Z,102656.66
2023-03-02T11:44:52.870Z,102652.53
2023-03-02T11:47:21.212Z,102652.41
2023-03-02T11:50:01.987Z,102645.38
2023-03-02T11:52:32.910Z,102643.88
2023-03-02T11:55:24.901Z,102633.41
2023-03-02T12:00:28.981Z,102641.97
2023-03-02T12:03:06.829Z,102636.13
2023-03-02T12:05:36.959Z,102638.19
2023-03-02T12:08:28.308Z,102633.53
2023-03-02T12:11:18.849Z,102630.31
2023-03-02T12:13:49.699Z,102621.72
2023-03-02T12:16:22.418Z,102619.13
2023-03-02T12:18:53.074Z,102625.53
2023-03-02T12:21:24.185Z,102610.59
2023-03-02T12:23:50.936Z,102620.00
2023-03-02T12:26:20.257Z,102613.28
2023-03-02T12:29:13.881Z,102610.09
2023-03-02T12:31:43.584Z,102596.94
2023-03-02T12:34:39.823Z,102601.56
2023-03-02T12:37:14.430Z,102599.47
2023-03-02T12:39:50.089Z,102593.00
2023-03-02T12:42:35.508Z,102591.91
2023-03-02T12:45:11.215Z,102591.72
2023-03-02T12:47:41.242Z,102592.19
2023-03-02T12:50:20.031Z,102587.50
2023-03-02T12:53:01.014Z,102588.25
2023-03-02T12:55:27.602Z,102584.34
2023-03-02T12:57:56.639Z,102589.09
2023-03-02T13:00:26.973Z,102581.06
2023-03-02T13:02:56.638Z,102585.13
2023-03-02T13:05:29.600Z,102578.97
2023-03-02T13:08:04.336Z,102577.56
2023-03-02T13:10:43.788Z,102571.56
2023-03-02T13:13:21.499Z,102558.91
2023-03-02T13:15:55.234Z,102562.66
2023-03-02T13:18:24.023Z,102557.72
2023-03-02T13:20:51.912Z,102552.72
2023-03-02T13:23:19.771Z,102546.50
2023-03-02T13:25:56.665Z,102543.16
2023-03-02T13:28:35.145Z,102541.38
2023-03-02T13:31:16.592Z,102543.16
2023-03-02T13:33:45.395Z,102544.28
2023-03-02T13:36:23.593Z,102547.41
2023-03-02T13:38:59.275Z,102544.22
2023-03-02T13:41:31.658Z,102550.75
2023-03-02T13:43:59.481Z,102538.81
2023-03-02T13:46:35.665Z,102543.63
2023-03-02T13:49:10.192Z,102550.41
2023-03-02T13:51:46.270Z,102544.22
2023-03-02T13:54:18.858Z,102542.66
2023-03-02T13:56:45.365Z,102556.22
2023-03-02T13:59:18.125Z,102547.78
2023-03-02T14:01:44.924Z,102545.59
2023-03-02T14:04:13.304Z,102539.38
2023-03-02T14:06:39.961Z,102527.75
2023-03-02T14:09:06.553Z,102533.97
2023-03-02T14:11:37.504Z,102534.13
2023-03-02T14:14:06.314Z,102526.38
2023-03-02T14:16:36.089Z,102526.66
2023-03-02T14:19:03.655Z,102527.47
2023-03-02T14:21:30.421Z,102526.78
2023-03-02T14:23:58.914Z,102519.88
2023-03-02T14:26:31.592Z,102516.53
2023-03-02T14:29:05.471Z,102513.22
2023-03-02T14:31:32.961Z,102519.28
2023-03-02T14:33:59.567Z,102511.28
2023-03-02T14:36:33.141Z,102516.94
2023-03-02T14:39:03.751Z,102506.56
2023-03-02T14:41:31.498Z,102504.19
2023-03-02T14:43:58.193Z,102511.47
2023-03-02T14:46:24.718Z,102506.38
2023-03-02T14:48:51.320Z,102500.00
2023-03-02T14:51:25.774Z,102500.72
2023-03-02T14:53:56.185Z,102495.47
2023-03-02T14:56:23.585Z,102491.91
2023-03-02T14:58:52.130Z,102487.84
2023-03-02T15:01:20.122Z,102489.75
2023-03-02T15:03:46.782Z,102490.22
2023-03-02T15:06:26.184Z,102488.03
2023-03-02T15:08:54.087Z,102491.50
2023-03-02T15:11:20.578Z,102488.44
2023-03-02T15:13:47.277Z,102487.03
2023-03-02T15:16:14.592Z,102487.13
2023-03-02T15:18:41.347Z,102487.53
2023-03-02T15:21:14.622Z,102482.28
2023-03-02T15:23:41.192Z,102478.41
2023-03-02T15:26:07.837Z,102473.44
2023-03-02T15:28:34.487Z,102479.75
2023-03-02T15:31:12.519Z,102485.41
2023-03-02T15:33:40.084Z,102482.63
2023-03-02T15:36:07.304Z,102478.03
2023-03-02T15:38:35.823Z,102482.13
2023-03-02T15:41:13.477Z,102478.09
2023-03-02T15:43:40.091Z,102477.38
2023-03-02T15:46:09.421Z,102477.53
2023-03-02T15:48:36.903Z,102473.47
2023-03-02T15:51:06.284Z,102479.69
2023-03-02T15:53:37.440Z,102481.63
2023-03-02T15:56:11.151Z,102482.81
2023-03-02T15:58:37.865Z,102486.94
2023-03-02T16:01:08.607Z,102489.22
2023-03-02T16:03:35.221Z,102491.38
2023-03-02T16:06:01.999Z,102491.06
2023-03-02T16:08:29.061Z,102487.00
2023-03-02T16:11:03.974Z,102499.53
2023-03-02T16:13:30.790Z,102496.47
2023-03-02T16:16:00.226Z,102498.91
2023-03-02T16:18:26.796Z,102488.22
2023-03-02T16:20:53.242Z,102488.84
2023-03-02T16:23:19.929Z,102494.56
2023-03-02T16:25:50.014Z,102504.69
2023-03-02T16:28:18.301Z,102500.91
2023-03-02T16:30:46.167Z,102510.19
2023-03-02T16:33:16.287Z,102509.00
2023-03-02T16:35:43.165Z,102507.50
2023-03-02T16:38:09.895Z,102508.91
2023-03-02T16:40:38.715Z,102521.88
2023-03-02T16:43:08.840Z,102523.19
2023-03-02T16:45:35.687Z,102527.13
2023-03-02T16:48:03.812Z,102533.91
2023-03-02T16:50:30.877Z,102534.59
2023-03-02T16:52:59.124Z,102537.94
2023-03-02T16:55:25.966Z,102529.59
2023-03-02T16:57:52.766Z,102541.38
2023-03-02T17:00:21.460Z,102542.56
2023-03-02T17:02:48.940Z,102543.84
2023-03-02T17:05:19.120Z,102550.34
2023-03-02T17:07:46.575Z,102545.56
2023-03-02T17:10:21.456Z,102543.31
2023-03-02T17:12:48.046Z,102555.25
2023-03-02T17:15:14.947Z,102557.25
2023-03-02T17:17:41.503Z,102562.22
2023-03-02T17:20:10.166Z,102552.34
2023-03-02T17:22:36.761Z,102561.69
2023-03-02T17:25:04.810Z,102571.00
2023-03-02T17:27:31.700Z,102572.38
2023-03-02T17:29:58.246Z,102575.47
2023-03-02T17:32:24.862Z,102573.16
2023-03-02T17:34:51.397Z,102578.84
2023-03-02T17:37:18.210Z,102578.31
2023-03-02T17:39:44.801Z,102591.06
2023-03-02T17:42:11.567Z,102581.78
2023-03-02T17:44:40.139Z,102592.44
2023-03-02T17:47:08.392Z,102591.22
2023-03-02T17:49:42.686Z,102602.72
2023-03-02T17:52:09.342Z,102606.38
2023-03-02T17:54:36.445Z,102601.47
2023-03-02T17:57:04.170Z,102614.09
2023-03-02T17:59:30.821Z,102611.91
2023-03-02T18:01:57.391Z,102618.38
2023-03-02T18:04:24.029Z,102622.03
2023-03-02T18:06:52.441Z,102627.38
2023-03-02T18:09:20.652Z,102632.66
2023-03-02T18:11:47.585Z,102626.81
2023-03-02T18:14:16.918Z,102629.63
2023-03-02T18:16:43.590Z,102629.75
2023-03-02T18:19:10.243Z,102635.16
2023-03-02T18:21:38.511Z,102637.97
2023-03-02T18:24:05.355Z,102641.66
2023-03-02T18:26:32.036Z,102645.28
2023-03-02T18:28:58.635Z,102653.31
2023-03-02T18:31:25.467Z,102650.06
2023-03-02T18:33:52.195Z,102652.03
2023-03-02T18:36:18.948Z,102657.44
2023-03-02T18:38:45.749Z,102651.59
2023-03-02T18:41:13.722Z,102654.31
2023-03-02T18:43:42.220Z,102652.03
2023-03-02T18:46:26.404Z,102663.38
2023-03-02T18:48:54.419Z,102663.47
2023-03-02T18:51:23.675Z,102667.88
2023-03-02T18:53:51.192Z,102668.16
2023-03-02T18:56:18.074Z,102674.28
2023-03-02T18:58:45.217Z,102672.00
2023-03-02T19:01:12.260Z,102679.81
2023-03-02T19:03:41.819Z,102671.34
2023-03-02T19:06:08.853Z,102670.59
2023-03-02T19:08:35.846Z,102666.53
2023-03-02T19:11:04.854Z,102673.06
2023-03-02T19:13:31.616Z,102662.94
2023-03-02T19:15:58.671Z,102671.06
2023-03-02T19:18:25.541Z,102669.66
2023-03-02T19:20:54.397Z,102676.84
2023-03-02T19:23:21.486Z,102679.75
2023-03-02T19:25:48.281Z,102667.66
2023-03-02T19:28:14.966Z,102682.63
2023-03-02T19:30:41.862Z,102686.44
2023-03-02T19:33:09.815Z,102679.75
2023-03-02T19:35:37.813Z,102685.06
2023-03-02T19:38:05.844Z,102688.69
2023-03-02T19:40:32.616Z,102692.59
2023-03-02T19:42:59.151Z,102689.47
2023-03-02T19:45:29.899Z,102688.28
2023-03-02T19:47:57.938Z,102693.56
2023-03-02T19:50:25.882Z,102694.50
2023-03-02T19:52:54.928Z,102694.56
2023-03-02T19:55:22.434Z,102697.38
2023-03-02T19:57:51.489Z,102691.59
2023-03-02T20:00:19.392Z,102696.91
2023-03-02T20:02:47.300Z,102694.47
2023-03-02T20:05:13.915Z,102701.63
2023-03-02T20:07:41.844Z,102687.88
2023-03-02T20:10:09.929Z,102694.19
2023-03-02T20:12:37.036Z,102693.91
2023-03-02T20:15:05.630Z,102699.28
2023-03-02T20:17:32.221Z,102699.19
2023-03-02T20:20:01.019Z,102696.69
2023-03-02T20:22:27.564Z,102698.47
2023-03-02T20:24:54.592Z,102698.53
2023-03-02T20:27:21.262Z,102702.34
2023-03-02T20:29:48.370Z,102701.78
2023-03-02T20:32:15.115Z,102707.06
2023-03-02T20:34:43.105Z,102702.97
2023-03-02T20:37:12.086Z,102701.66
2023-03-02T20:39:40.627Z,102705.44
2023-03-02T20:42:07.952Z,102702.00
2023-03-02T20:44:35.398Z,102696.06
2023-03-02T20:47:08.185Z,102701.28
2023-03-02T20:49:36.649Z,102702.94
2023-03-02T20:52:04.759Z,102692.72
2023-03-02T20:54:35.597Z,102701.50
2023-03-02T20:57:02.183Z,102699.13
2023-03-02T20:59:28.852Z,102702.63
2023-03-02T21:01:55.544Z,102702.06
2023-03-02T21:04:22.422Z,102702.16
2023-03-02T21:06:49.694Z,102710.97
2023-03-02T21:09:17.951Z,102711.88
2023-03-02T21:11:45.761Z,102716.44
2023-03-02T21:14:14.255Z,102701.91
2023-03-02T21:16:43.512Z,102710.72
2023-03-02T21:19:16.205Z,102717.94
2023-03-02T21:21:43.046Z,102720.63
2023-03-02T21:24:18.545Z,102723.38
2023-03-02T21:26:46.820Z,102728.75
2023-03-02T21:29:17.946Z,102725.47
2023-03-02T21:31:46.165Z,102723.91
2023-03-02T21:34:13.561Z,102726.75
2023-03-02T21:36:40.617Z,102725.00
2023-03-02T21:39:08.592Z,102713.84
2023-03-02T21:41:36.311Z,102710.47
2023-03-02T21:44:05.776Z,102710.69
2023-03-02T21:46:35.793Z,102704.81
2023-03-02T21:49:02.854Z,102704.81
2023-03-02T21:51:32.482Z,102710.91
2023-03-02T21:53:59.197Z,102702.53
2023-03-02T21:56:26.646Z,102706.13
2023-03-02T21:58:56.197Z,102709.75
2023-03-02T22:01:24.609Z,102715.03
2023-03-02T22:03:51.474Z,102709.97
2023-03-02T22:06:20.830Z,102708.31
2023-03-02T22:08:47.661Z,102706.91
2023-03-02T22:11:26.100Z,102712.16
2023-03-02T22:13:56.438Z,102713.94
2023-03-02T22:16:25.533Z,102713.25
2023-03-02T22:18:57.113Z,102720.22
2023-03-02T22:21:26.666Z,102722.03
2023-03-02T22:24:13.744Z,102724.78
2023-03-02T22:26:46.613Z,102724.13
2023-03-02T22:29:26.083Z,102736.34
2023-03-02T22:31:55.278Z,102734.75
2023-03-02T22:34:28.666Z,102732.09
2023-03-02T22:37:17.571Z,102729.41
2023-03-02T22:39:44.995Z,102722.59
2023-03-02T22:42:17.833Z,102724.38
2023-03-02T22:44:50.457Z,102719.31
2023-03-02T22:47:19.875Z,102719.53
2023-03-02T22:49:47.373Z,102717.13
2023-03-02T22:52:17.693Z,102720.81
2023-03-02T22:54:45.647Z,102720.97
2023-03-02T22:57:35.242Z,102716.66
2023-03-02T23:00:14.092Z,102714.13
2023-03-02T23:02:43.937Z,102718.03
2023-03-02T23:05:27.467Z,102726.06
2023-03-02T23:08:12.339Z,102729.56
2023-03-02T23:10:40.685Z,102738.50
2023-03-02T23:13:09.794Z,102728.13
2023-03-02T23:15:36.766Z,102722.16
2023-03-02T23:18:15.875Z,102733.31
2023-03-02T23:20:42.465Z,102725.53
2023-03-02T23:23:09.164Z,102731.03
2023-03-02T23:25:35.669Z,102724.31
2023-03-02T23:28:02.228Z,102728.59
2023-03-02T23:30:28.958Z,102724.31
2023-03-02T23:32:55.494Z,102731.34
2023-03-02T23:35:22.114Z,102723.78
2023-03-02T23:37:48.798Z,102720.38
2023-03-02T23:40:15.641Z,102729.06
2023-03-02T23:42:42.267Z,102720.38
2023-03-02T23:45:09.479Z,102722.13
2023-03-02T23:47:35.951Z,102714.59
2023-03-02T23:50:02.881Z,102724.19
2023-03-02T23:52:29.907Z,102725.50
2023-03-02T23:54:56.459Z,102721.53
2023-03-02T23:57:23.077Z,102726.84
2023-03-02T23:59:49.562Z,102728.84
